createdAt,value
2022-10-11T00:00:41.781Z,101622.56
2022-10-11T00:03:08.118Z,101629.44
2022-10-11T00:05:35.014Z,101636.31
2022-10-11T00:08:01.588Z,101631.09
2022-10-11T00:10:27.975Z,101644.94
2022-10-11T00:12:54.291Z,101646.66
2022-10-11T00:15:22.218Z,101653.53
2022-10-11T00:17:48.764Z,101661.34
2022-10-11T00:20:15.126Z,101659.56
2022-10-11T00:22:42.576Z,101665.66
2022-10-11T00:25:10.704Z,101665.59
2022-10-11T00:27:37.349Z,101669.03
2022-10-11T00:30:05.769Z,101664.69
2022-10-11T00:32:36.781Z,101669.00
2022-10-11T00:35:07.005Z,101674.19
2022-10-11T00:37:35.269Z,101670.75
2022-10-11T00:40:02.286Z,101678.47
2022-10-11T00:42:28.607Z,101679.22
2022-10-11T00:45:26.658Z,101685.22
2022-10-11T00:48:07.377Z,101674.00
2022-10-11T00:50:36.423Z,101680.91
2022-10-11T00:53:11.206Z,101676.69
2022-10-11T00:55:47.731Z,101687.88
2022-10-11T00:58:14.522Z,101683.56
2022-10-11T01:00:40.878Z,101682.75
2022-10-11T01:03:07.238Z,101680.97
2022-10-11T01:05:38.772Z,101681.00
2022-10-11T01:08:07.006Z,101680.97
2022-10-11T01:10:34.204Z,101693.19
2022-10-11T01:13:38.077Z,101689.69
2022-10-11T01:16:24.948Z,101688.78
2022-10-11T01:19:00.474Z,101693.19
2022-10-11T01:21:45.266Z,101697.50
2022-10-11T01:24:42.374Z,101700.03
2022-10-11T01:27:26.620Z,101705.19
2022-10-11T01:29:59.005Z,101693.94
2022-10-11T01:32:47.430Z,101704.31
2022-10-11T01:35:19.333Z,101698.28
2022-10-11T01:38:29.056Z,101705.25
2022-10-11T01:41:24.862Z,101706.09
2022-10-11T01:43:59.558Z,101707.84
2022-10-11T01:46:27.055Z,101711.25
2022-10-11T01:48:56.224Z,101709.47
2022-10-11T01:51:27.379Z,101721.59
2022-10-11T01:54:19.351Z,101714.69
2022-10-11T01:56:56.835Z,101722.47
2022-10-11T01:59:36.403Z,101726.75
2022-10-11T02:02:27.453Z,101725.88
2022-10-11T02:05:14.946Z,101725.00
2022-10-11T02:08:08.095Z,101724.09
2022-10-11T02:10:46.576Z,101728.38
2022-10-11T02:13:20.556Z,101727.41
2022-10-11T02:15:49.486Z,101727.38
2022-10-11T02:18:20.260Z,101726.44
2022-10-11T02:20:48.926Z,101729.03
2022-10-11T02:23:20.700Z,101735.03
2022-10-11T02:25:48.813Z,101732.44
2022-10-11T02:28:20.547Z,101731.56
2022-10-11T02:30:49.498Z,101731.66
2022-10-11T02:33:21.641Z,101735.09
2022-10-11T02:35:55.990Z,101740.25
2022-10-11T02:38:27.409Z,101743.78
2022-10-11T02:41:05.530Z,101740.25
2022-10-11T02:43:39.394Z,101742.00
2022-10-11T02:46:08.330Z,101741.94
2022-10-11T02:48:35.999Z,101743.69
2022-10-11T02:51:04.031Z,101746.25
2022-10-11T02:53:30.797Z,101755.78
2022-10-11T02:55:57.196Z,101757.50
2022-10-11T02:58:24.134Z,101748.84
2022-10-11T03:00:50.693Z,101749.72
2022-10-11T03:03:17.075Z,101756.59
2022-10-11T03:05:43.788Z,101755.78
2022-10-11T03:08:11.912Z,101766.00
2022-10-11T03:10:39.129Z,101768.63
2022-10-11T03:13:05.467Z,101773.78
2022-10-11T03:15:31.838Z,101782.38
2022-10-11T03:17:59.472Z,101787.56
2022-10-11T03:20:26.194Z,101782.25
2022-10-11T03:22:53.440Z,101801.22
2022-10-11T03:25:19.748Z,101799.53
2022-10-11T03:27:46.054Z,101800.31
2022-10-11T03:30:17.318Z,101798.56
2022-10-11T03:32:44.502Z,101805.47
2022-10-11T03:35:10.845Z,101800.25
2022-10-11T03:37:37.235Z,101811.38
2022-10-11T03:40:05.230Z,101804.50
2022-10-11T03:42:31.597Z,101802.69
2022-10-11T03:44:59.658Z,101807.00
2022-10-11T03:47:25.956Z,101820.97
2022-10-11T03:49:52.246Z,101841.16
2022-10-11T03:52:18.552Z,101835.19
2022-10-11T03:54:44.863Z,101830.91
2022-10-11T03:57:11.173Z,101833.53
2022-10-11T03:59:37.491Z,101834.41
2022-10-11T04:02:04.362Z,101841.47
2022-10-11T04:04:30.721Z,101837.19
2022-10-11T04:06:57.119Z,101835.47
2022-10-11T04:09:23.426Z,101824.25
2022-10-11T04:11:49.743Z,101830.44
2022-10-11T04:14:16.915Z,101818.34
2022-10-11T04:16:43.277Z,101834.84
2022-10-11T04:19:09.686Z,101846.06
2022-10-11T04:21:36.042Z,101846.94
2022-10-11T04:24:02.392Z,101846.13
2022-10-11T04:26:28.711Z,101857.47
2022-10-11T04:28:55.184Z,101862.69
2022-10-11T04:31:21.534Z,101861.81
2022-10-11T04:33:47.862Z,101867.00
2022-10-11T04:36:14.230Z,101862.69
2022-10-11T04:38:40.534Z,101862.66
2022-10-11T04:41:12.998Z,101876.44
2022-10-11T04:43:39.678Z,101873.81
2022-10-11T04:46:07.163Z,101870.28
2022-10-11T04:48:33.778Z,101875.38
2022-10-11T04:51:00.109Z,101883.91
2022-10-11T04:53:26.524Z,101878.72
2022-10-11T04:56:02.399Z,101889.03
2022-10-11T04:58:30.388Z,101892.50
2022-10-11T05:00:57.047Z,101885.56
2022-10-11T05:03:24.108Z,101888.06
2022-10-11T05:05:50.761Z,101895.03
2022-10-11T05:08:17.300Z,101894.97
2022-10-11T05:10:43.635Z,101898.44
2022-10-11T05:13:10.141Z,101903.66
2022-10-11T05:15:36.431Z,101904.41
2022-10-11T05:18:02.757Z,101906.06
2022-10-11T05:20:29.115Z,101913.78
2022-10-11T05:22:55.503Z,101918.09
2022-10-11T05:25:21.812Z,101921.50
2022-10-11T05:27:48.634Z,101919.69
2022-10-11T05:30:15.057Z,101931.69
2022-10-11T05:32:41.335Z,101929.16
2022-10-11T05:35:08.137Z,101930.97
2022-10-11T05:37:34.467Z,101938.69
2022-10-11T05:40:00.768Z,101941.16
2022-10-11T05:42:27.107Z,101939.38
2022-10-11T05:44:53.429Z,101945.38
2022-10-11T05:47:19.749Z,101951.53
2022-10-11T05:49:46.084Z,101957.41
2022-10-11T05:52:13.144Z,101952.28
2022-10-11T05:54:39.500Z,101963.59
2022-10-11T05:57:05.792Z,101968.84
2022-10-11T05:59:32.158Z,101966.41
2022-10-11T06:01:58.451Z,101958.72
2022-10-11T06:04:24.766Z,101974.31
2022-10-11T06:06:51.126Z,101973.66
2022-10-11T06:09:17.683Z,101971.16
2022-10-11T06:11:45.333Z,101972.97
2022-10-11T06:14:11.771Z,101973.88
2022-10-11T06:16:38.077Z,101983.53
2022-10-11T06:19:04.743Z,101990.34
2022-10-11T06:21:31.471Z,101986.13
2022-10-11T06:24:01.348Z,101997.34
2022-10-11T06:26:29.187Z,101996.59
2022-10-11T06:28:55.694Z,101995.69
2022-10-11T06:31:22.433Z,102004.38
2022-10-11T06:33:48.790Z,102009.56
2022-10-11T06:36:16.604Z,102003.50
2022-10-11T06:38:45.186Z,102003.41
2022-10-11T06:41:21.498Z,102006.00
2022-10-11T06:43:49.676Z,102007.78
2022-10-11T06:46:17.791Z,102011.19
2022-10-11T06:48:45.626Z,102020.81
2022-10-11T06:51:16.811Z,102022.63
2022-10-11T06:53:43.470Z,102020.97
2022-10-11T06:56:12.090Z,102020.19
2022-10-11T06:58:39.729Z,102021.16
2022-10-11T07:01:12.510Z,102025.53
2022-10-11T07:03:39.410Z,102026.47
2022-10-11T07:06:11.784Z,102028.28
2022-10-11T07:08:38.619Z,102032.72
2022-10-11T07:11:10.504Z,102033.66
2022-10-11T07:13:37.632Z,102029.31
2022-10-11T07:16:07.538Z,102037.19
2022-10-11T07:18:35.029Z,102038.09
2022-10-11T07:21:06.859Z,102042.53
2022-10-11T07:23:33.295Z,102043.53
2022-10-11T07:25:59.942Z,102046.22
2022-10-11T07:28:27.276Z,102043.75
2022-10-11T07:30:53.608Z,102047.22
2022-10-11T07:33:20.077Z,102044.72
2022-10-11T07:35:48.569Z,102039.53
2022-10-11T07:38:16.027Z,102047.38
2022-10-11T07:40:44.356Z,102052.72
2022-10-11T07:43:12.174Z,102054.53
2022-10-11T07:45:42.716Z,102051.16
2022-10-11T07:48:09.350Z,102048.63
2022-10-11T07:50:35.699Z,102053.88
2022-10-11T07:53:02.474Z,102047.03
2022-10-11T07:55:29.957Z,102053.19
2022-10-11T07:57:56.858Z,102056.69
2022-10-11T08:00:24.105Z,102060.22
2022-10-11T08:02:50.647Z,102065.53
2022-10-11T08:05:17.121Z,102066.38
2022-10-11T08:07:43.506Z,102063.84
2022-10-11T08:10:10.356Z,102070.88
2022-10-11T08:12:36.682Z,102067.41
2022-10-11T08:15:03.388Z,102069.19
2022-10-11T08:17:29.713Z,102075.38
2022-10-11T08:19:57.994Z,102081.56
2022-10-11T08:22:24.456Z,102080.78
2022-10-11T08:24:50.818Z,102072.06
2022-10-11T08:27:17.129Z,102075.59
2022-10-11T08:29:43.603Z,102074.78
2022-10-11T08:32:11.943Z,102076.56
2022-10-11T08:34:38.253Z,102070.47
2022-10-11T08:37:04.623Z,102071.34
2022-10-11T08:39:31.026Z,102076.66
2022-10-11T08:42:00.538Z,102075.00
2022-10-11T08:45:08.905Z,102079.34
2022-10-11T08:47:43.093Z,102078.47
2022-10-11T08:50:19.771Z,102079.34
2022-10-11T08:53:07.936Z,102083.72
2022-10-11T08:55:42.149Z,102079.34
2022-10-11T08:58:14.920Z,102081.09
2022-10-11T09:00:45.118Z,102082.00
2022-10-11T09:03:41.685Z,102078.53
2022-10-11T09:06:23.231Z,102078.50
2022-10-11T09:09:00.273Z,102072.44
2022-10-11T09:12:01.914Z,102076.78
2022-10-11T09:14:37.198Z,102081.13
2022-10-11T09:17:26.677Z,102079.38
2022-10-11T09:20:26.113Z,102084.59
2022-10-11T09:23:15.662Z,102081.09
2022-10-11T09:26:17.668Z,102081.09
2022-10-11T09:29:01.584Z,102087.16
2022-10-11T09:31:28.256Z,102088.91
2022-10-11T09:33:56.266Z,102084.56
2022-10-11T09:36:54.862Z,102086.25
2022-10-11T09:39:31.583Z,102094.09
2022-10-11T09:42:07.619Z,102088.00
2022-10-11T09:44:39.916Z,102088.88
2022-10-11T09:47:13.999Z,102090.53
2022-10-11T09:49:45.399Z,102086.97
2022-10-11T09:52:17.962Z,102088.75
2022-10-11T09:54:50.372Z,102082.69
2022-10-11T09:57:35.790Z,102082.63
2022-10-11T10:00:02.065Z,102086.09
2022-10-11T10:02:30.504Z,102086.88
2022-10-11T10:05:04.554Z,102089.44
2022-10-11T10:07:33.441Z,102079.81
2022-10-11T10:10:20.324Z,102089.34
2022-10-11T10:12:54.174Z,102094.53
2022-10-11T10:17:52.453Z,102099.56
2022-10-11T10:20:31.460Z,102103.84
2022-10-11T10:23:07.100Z,102109.94
2022-10-11T10:25:43.301Z,102118.78
2022-10-11T10:28:30.470Z,102115.38
2022-10-11T10:30:58.820Z,102119.94
2022-10-11T10:33:29.576Z,102126.91
2022-10-11T10:36:18.985Z,102115.53
2022-10-11T10:38:56.261Z,102124.38
2022-10-11T10:41:22.676Z,102121.78
2022-10-11T10:43:55.499Z,102123.50
2022-10-11T10:46:33.143Z,102118.16
2022-10-11T10:49:34.893Z,102124.25
2022-10-11T10:52:29.326Z,102121.63
2022-10-11T10:54:55.611Z,102115.50
2022-10-11T10:58:01.076Z,102121.50
2022-10-11T11:00:36.709Z,102121.44
2022-10-11T11:03:09.747Z,102117.97
2022-10-11T11:06:17.361Z,102124.88
2022-10-11T11:09:00.340Z,102111.84
2022-10-11T11:11:35.835Z,102116.16
2022-10-11T11:14:39.901Z,102122.25
2022-10-11T11:17:27.547Z,102125.75
2022-10-11T11:20:24.863Z,102129.22
2022-10-11T11:23:12.887Z,102129.16
2022-10-11T11:25:45.024Z,102132.50
2022-10-11T11:28:43.426Z,102128.97
2022-10-11T11:31:29.040Z,102129.09
2022-10-11T11:34:19.238Z,102133.53
2022-10-11T11:36:56.201Z,102129.94
2022-10-11T11:39:26.024Z,102127.09
2022-10-11T11:41:59.559Z,102126.22
2022-10-11T11:44:31.666Z,102119.16
2022-10-11T11:47:12.744Z,102127.66
2022-10-11T11:49:46.496Z,102125.25
2022-10-11T11:52:20.269Z,102118.47
2022-10-11T11:55:03.055Z,102120.38
2022-10-11T11:57:55.008Z,102124.88
2022-10-11T12:00:25.336Z,102120.53
2022-10-11T12:02:54.618Z,102111.63
2022-10-11T12:05:27.777Z,102101.91
2022-10-11T12:07:58.392Z,102110.41
2022-10-11T12:10:30.719Z,102111.06
2022-10-11T12:13:12.399Z,102110.94
2022-10-11T12:15:38.773Z,102112.78
2022-10-11T12:18:14.641Z,102115.31
2022-10-11T12:20:42.687Z,102116.03
2022-10-11T12:23:30.897Z,102102.75
2022-10-11T12:26:15.943Z,102111.41
2022-10-11T12:28:42.616Z,102103.16
2022-10-11T12:31:24.764Z,102102.38
2022-10-11T12:34:19.018Z,102107.56
2022-10-11T12:36:48.471Z,102103.16
2022-10-11T12:39:20.595Z,102112.72
2022-10-11T12:41:50.055Z,102107.00
2022-10-11T12:44:22.591Z,102106.09
2022-10-11T12:46:54.921Z,102106.94
2022-10-11T12:49:48.972Z,102099.84
2022-10-11T12:52:18.265Z,102105.81
2022-10-11T12:55:10.576Z,102099.22
2022-10-11T12:57:59.019Z,102103.72
2022-10-11T13:00:30.927Z,102105.22
2022-10-11T13:03:31.815Z,102109.59
2022-10-11T13:06:01.917Z,102100.09
2022-10-11T13:08:37.174Z,102105.56
2022-10-11T13:11:10.979Z,102108.22
2022-10-11T13:13:58.771Z,102113.69
2022-10-11T13:16:28.986Z,102105.91
2022-10-11T13:18:59.185Z,102107.69
2022-10-11T13:21:30.691Z,102118.22
2022-10-11T13:24:02.972Z,102107.75
2022-10-11T13:26:31.254Z,102109.66
2022-10-11T13:29:00.047Z,102108.03
2022-10-11T13:31:26.489Z,102111.53
2022-10-11T13:33:55.498Z,102111.53
2022-10-11T13:36:26.572Z,102108.06
2022-10-11T13:38:58.471Z,102117.69
2022-10-11T13:41:27.125Z,102114.22
2022-10-11T13:43:56.025Z,102114.22
2022-10-11T13:46:25.333Z,102113.38
2022-10-11T13:49:27.009Z,102110.66
2022-10-11T13:52:02.091Z,102105.38
2022-10-11T13:54:53.316Z,102111.50
2022-10-11T13:57:22.721Z,102108.88
2022-10-11T13:59:49.326Z,102107.16
2022-10-11T14:02:22.119Z,102105.34
2022-10-11T14:04:48.949Z,102101.81
2022-10-11T14:07:29.882Z,102109.66
2022-10-11T14:09:56.428Z,102108.88
2022-10-11T14:12:40.652Z,102111.56
2022-10-11T14:15:24.332Z,102112.50
2022-10-11T14:17:51.390Z,102107.16
2022-10-11T14:20:33.520Z,102109.06
2022-10-11T14:23:00.048Z,102116.16
2022-10-11T14:25:26.441Z,102112.75
2022-10-11T14:27:54.242Z,102111.84
2022-10-11T14:30:26.427Z,102115.41
2022-10-11T14:32:56.381Z,102110.25
2022-10-11T14:35:26.580Z,102116.31
2022-10-11T14:37:53.796Z,102112.78
2022-10-11T14:40:25.026Z,102113.59
2022-10-11T14:42:51.630Z,102114.41
2022-10-11T14:45:18.595Z,102112.75
2022-10-11T14:47:45.207Z,102109.28
2022-10-11T14:50:26.904Z,102119.78
2022-10-11T14:52:53.586Z,102118.16
2022-10-11T14:55:20.154Z,102121.59
2022-10-11T14:57:46.600Z,102124.13
2022-10-11T15:00:22.389Z,102122.34
2022-10-11T15:02:50.650Z,102124.19
2022-10-11T15:05:17.002Z,102128.72
2022-10-11T15:07:43.438Z,102130.44
2022-10-11T15:10:18.640Z,102121.75
2022-10-11T15:12:45.350Z,102133.03
2022-10-11T15:15:16.739Z,102133.13
2022-10-11T15:17:43.216Z,102129.69
2022-10-11T15:20:18.599Z,102130.56
2022-10-11T15:22:45.105Z,102134.97
2022-10-11T15:25:11.614Z,102137.59
2022-10-11T15:27:37.922Z,102141.09
2022-10-11T15:30:30.423Z,102141.88
2022-10-11T15:32:57.615Z,102135.81
2022-10-11T15:35:25.377Z,102130.59
2022-10-11T15:37:53.026Z,102134.94
2022-10-11T15:40:29.996Z,102139.31
2022-10-11T15:42:56.374Z,102134.91
2022-10-11T15:45:23.912Z,102133.16
2022-10-11T15:47:50.781Z,102134.91
2022-10-11T15:50:24.181Z,102133.16
2022-10-11T15:52:51.676Z,102137.56
2022-10-11T15:55:18.498Z,102142.78
2022-10-11T15:57:45.890Z,102140.19
2022-10-11T16:00:12.523Z,102141.00
2022-10-11T16:02:39.384Z,102142.78
2022-10-11T16:05:05.849Z,102138.38
2022-10-11T16:07:32.241Z,102145.38
2022-10-11T16:09:58.573Z,102145.34
2022-10-11T16:12:24.918Z,102146.22
2022-10-11T16:14:51.221Z,102145.38
2022-10-11T16:17:17.546Z,102145.38
2022-10-11T16:19:43.843Z,102145.38
2022-10-11T16:22:10.149Z,102140.16
2022-10-11T16:24:36.880Z,102151.50
2022-10-11T16:27:03.351Z,102149.78
2022-10-11T16:29:29.654Z,102148.94
2022-10-11T16:31:55.931Z,102158.50
2022-10-11T16:34:22.305Z,102154.16
2022-10-11T16:36:48.581Z,102155.91
2022-10-11T16:39:18.195Z,102154.16
2022-10-11T16:41:45.055Z,102153.31
2022-10-11T16:44:14.208Z,102150.69
2022-10-11T16:46:40.772Z,102159.41
2022-10-11T16:49:07.104Z,102160.28
2022-10-11T16:51:33.609Z,102157.66
2022-10-11T16:54:00.784Z,102159.41
2022-10-11T16:56:27.497Z,102156.78
2022-10-11T16:58:54.791Z,102161.16
2022-10-11T17:01:21.511Z,102162.06
2022-10-11T17:03:49.412Z,102162.06
2022-10-11T17:06:15.728Z,102155.06
2022-10-11T17:08:42.150Z,102152.47
2022-10-11T17:11:08.508Z,102151.63
2022-10-11T17:13:34.912Z,102156.00
2022-10-11T17:16:01.323Z,102156.00
2022-10-11T17:18:28.117Z,102154.25
2022-10-11T17:21:05.412Z,102146.41
2022-10-11T17:23:32.536Z,102149.88
2022-10-11T17:26:05.217Z,102143.78
2022-10-11T17:28:35.324Z,102148.16
2022-10-11T17:31:04.143Z,102145.53
2022-10-11T17:33:31.392Z,102148.16
2022-10-11T17:35:59.946Z,102149.00
2022-10-11T17:38:27.513Z,102149.88
2022-10-11T17:41:05.771Z,102144.66
2022-10-11T17:43:32.228Z,102152.53
2022-10-11T17:46:00.655Z,102149.91
2022-10-11T17:48:28.337Z,102149.03
2022-10-11T17:50:54.901Z,102149.91
2022-10-11T17:53:21.513Z,102156.84
2022-10-11T17:55:51.145Z,102152.47
2022-10-11T17:58:18.121Z,102157.69
2022-10-11T18:00:44.666Z,102158.53
2022-10-11T18:03:11.315Z,102160.28
2022-10-11T18:05:41.509Z,102160.25
2022-10-11T18:08:08.529Z,102158.47
2022-10-11T18:10:36.896Z,102158.44
2022-10-11T18:13:06.660Z,102157.53
2022-10-11T18:15:33.718Z,102162.66
2022-10-11T18:18:00.078Z,102167.88
2022-10-11T18:20:26.443Z,102164.34
2022-10-11T18:22:55.833Z,102160.81
2022-10-11T18:25:22.133Z,102163.44
2022-10-11T18:27:48.508Z,102165.16
2022-10-11T18:30:14.980Z,102167.72
2022-10-11T18:32:41.347Z,102174.66
2022-10-11T18:35:08.051Z,102170.28
2022-10-11T18:37:34.350Z,102165.91
2022-10-11T18:40:00.957Z,102166.78
2022-10-11T18:42:27.282Z,102163.25
2022-10-11T18:44:53.585Z,102161.50
2022-10-11T18:47:19.936Z,102164.03
2022-10-11T18:49:46.242Z,102160.53
2022-10-11T18:52:12.635Z,102160.50
2022-10-11T18:54:39.068Z,102167.41
2022-10-11T18:57:05.398Z,102162.19
2022-10-11T18:59:32.871Z,102165.66
2022-10-11T19:01:59.216Z,102160.34
2022-10-11T19:04:25.572Z,102175.94
2022-10-11T19:06:53.171Z,102174.22
2022-10-11T19:09:22.289Z,102170.69
2022-10-11T19:11:54.470Z,102172.41
2022-10-11T19:14:25.667Z,102173.25
2022-10-11T19:16:52.850Z,102166.25
2022-10-11T19:19:21.663Z,102176.66
2022-10-11T19:21:48.860Z,102174.03
2022-10-11T19:24:17.066Z,102175.72
2022-10-11T19:26:43.623Z,102172.25
2022-10-11T19:29:14.550Z,102173.88
2022-10-11T19:31:43.688Z,102174.72
2022-10-11T19:34:10.362Z,102170.41
2022-10-11T19:36:37.084Z,102164.31
2022-10-11T19:39:05.617Z,102167.84
2022-10-11T19:41:32.334Z,102162.66
2022-10-11T19:43:59.056Z,102168.78
2022-10-11T19:49:15.624Z,102174.72
2022-10-11T19:51:41.986Z,102173.78
2022-10-11T19:54:12.230Z,102172.88
2022-10-11T19:56:38.662Z,102178.06
2022-10-11T19:59:06.385Z,102176.25
2022-10-11T20:01:33.485Z,102169.28
2022-10-11T20:04:03.748Z,102171.78
2022-10-11T20:06:35.828Z,102169.19
2022-10-11T20:09:27.913Z,102163.06
2022-10-11T20:11:51.097Z,102167.31
2022-10-11T20:14:17.385Z,102169.94
2022-10-11T20:16:43.690Z,102169.81
2022-10-11T20:19:09.993Z,102164.47
2022-10-11T20:21:36.732Z,102175.75
2022-10-11T20:24:03.527Z,102173.97
2022-10-11T20:26:30.676Z,102169.59
2022-10-11T20:28:57.822Z,102173.03
2022-10-11T20:31:33.181Z,102172.06
2022-10-11T20:34:02.137Z,102173.72
2022-10-11T20:36:29.999Z,102176.25
2022-10-11T20:38:58.058Z,102173.47
2022-10-11T20:41:31.614Z,102175.13
2022-10-11T20:43:59.851Z,102171.63
2022-10-11T20:46:29.706Z,102166.50
2022-10-11T20:49:01.778Z,102169.06
2022-10-11T20:51:29.759Z,102161.22
2022-10-11T20:53:56.430Z,102169.06
2022-10-11T20:56:22.875Z,102168.97
2022-10-11T20:58:54.529Z,102171.50
2022-10-11T21:01:23.790Z,102176.56
2022-10-11T21:03:50.375Z,102177.31
2022-10-11T21:06:16.983Z,102175.63
2022-10-11T21:08:43.392Z,102179.88
2022-10-11T21:11:10.572Z,102177.28
2022-10-11T21:13:37.207Z,102176.44
2022-10-11T21:16:11.162Z,102185.06
2022-10-11T21:18:38.353Z,102185.13
2022-10-11T21:21:07.190Z,102192.84
2022-10-11T21:23:34.362Z,102189.19
2022-10-11T21:26:09.201Z,102182.22
2022-10-11T21:28:36.128Z,102185.66
2022-10-11T21:31:10.149Z,102186.50
2022-10-11T21:33:37.032Z,102193.47
2022-10-11T21:36:05.351Z,102189.91
2022-10-11T21:38:32.166Z,102191.59
2022-10-11T21:40:58.554Z,102193.94
2022-10-11T21:43:24.889Z,102193.03
2022-10-11T21:45:51.249Z,102203.34
2022-10-11T21:48:17.736Z,102199.84
2022-10-11T21:50:44.031Z,102200.53
2022-10-11T21:53:10.375Z,102200.38
2022-10-11T21:55:36.678Z,102195.88
2022-10-11T21:58:02.970Z,102201.81
2022-10-11T22:00:29.285Z,102199.38
2022-10-11T22:02:55.739Z,102192.31
2022-10-11T22:05:22.082Z,102185.28
2022-10-11T22:07:48.375Z,102185.41
2022-10-11T22:10:14.764Z,102189.06
2022-10-11T22:12:41.071Z,102196.03
2022-10-11T22:15:07.750Z,102189.94
2022-10-11T22:17:34.028Z,102191.56
2022-10-11T22:20:00.343Z,102189.72
2022-10-11T22:22:26.724Z,102189.53
2022-10-11T22:24:53.007Z,102189.31
2022-10-11T22:27:19.291Z,102194.41
2022-10-11T22:29:45.585Z,102189.34
2022-10-11T22:32:11.880Z,102189.41
2022-10-11T22:34:38.195Z,102191.22
2022-10-11T22:37:04.582Z,102196.44
2022-10-11T22:39:30.898Z,102192.75
2022-10-11T22:41:57.207Z,102196.03
2022-10-11T22:44:23.494Z,102193.50
2022-10-11T22:46:49.821Z,102196.03
2022-10-11T22:49:16.520Z,102201.88
2022-10-11T22:51:42.870Z,102193.31
2022-10-11T22:54:10.813Z,102195.03
2022-10-11T22:56:37.149Z,102195.91
2022-10-11T22:59:03.471Z,102200.28
2022-10-11T23:01:29.964Z,102193.25
2022-10-11T23:03:56.481Z,102200.88
2022-10-11T23:06:22.935Z,102193.88
2022-10-11T23:08:49.311Z,102201.72
2022-10-11T23:11:15.662Z,102198.38
2022-10-11T23:13:42.104Z,102197.25
2022-10-11T23:16:10.257Z,102200.50
2022-10-11T23:18:36.878Z,102197.78
2022-10-11T23:21:04.227Z,102196.84
2022-10-11T23:23:30.692Z,102211.66
2022-10-11T23:26:07.133Z,102212.13
2022-10-11T23:28:33.780Z,102208.59
2022-10-11T23:31:00.597Z,102205.34
2022-10-11T23:33:27.651Z,102209.00
2022-10-11T23:35:53.975Z,102209.81
2022-10-11T23:38:20.305Z,102212.19
2022-10-11T23:40:46.672Z,102211.03
2022-10-11T23:43:12.954Z,102215.97
2022-10-11T23:45:39.272Z,102208.16
2022-10-11T23:48:05.742Z,102209.75
2022-10-11T23:50:32.032Z,102207.16
2022-10-11T23:52:58.359Z,102211.69
2022-10-11T23:55:24.686Z,102206.44
2022-10-11T23:57:50.971Z,102205.72
